Time;durP1;ratioP1;P1;durP2;ratioP2;P2;SDS_P1;SDS_P2;PMS_P1;PMS_P2;Temp;Humidity;BMP_temperature;BMP_pressure;BME280_temperature;BME280_humidity;BME280_pressure;Samples;Min_cycle;Max_cycle;Signal;HPM_P1;HPM_P2
2022/04/21 00:00:04;;;;;;;;;;;;;;;;;;5073757;28;19916;-67
2022/04/21 00:02:30;;;;;;;;;;;;;;;;;;5073663;28;20038;-67
2022/04/21 00:04:56;;;;;;;;;;;;;;;;;;5073401;28;20361;-67
2022/04/21 00:07:22;;;;;;;;;;;;;;;;;;5073701;28;19915;-67
2022/04/21 00:09:48;;;;;;;;;;;;;;;;;;5074102;28;19923;-68
2022/04/21 00:12:15;;;;;;;;;;;;;;;;;;5073243;28;19991;-67
2022/04/21 00:14:41;;;;;;;;;;;;;;;;;;5073687;28;19913;-67
2022/04/21 00:17:10;;;;;;;;;;;;;;;;;;5073324;28;20330;-67
2022/04/21 00:19:36;;;;;;;;;;;;;;;;;;5073912;28;20365;-67
2022/04/21 00:24:46;;;;;;;;;;;;;;;;;;5073124;28;19941;-67
2022/04/21 00:27:12;;;;;;;;;;;;;;;;;;5073468;28;19999;-67
2022/04/21 00:29:38;;;;;;;;;;;;;;;;;;5073322;28;20292;-67
2022/04/21 00:32:04;;;;;;;;;;;;;;;;;;5071751;28;19909;-67
2022/04/21 00:34:30;;;;;;;;;;;;;;;;;;5073808;28;20372;-67
2022/04/21 00:36:56;;;;;;;;;;;;;;;;;;5073321;28;19913;-67
2022/04/21 00:39:22;;;;;;;;;;;;;;;;;;5072927;28;19908;-67
2022/04/21 00:41:48;;;;;;;;;;;;;;;;;;5071984;28;19995;-67
2022/04/21 00:44:14;;;;;;;;;;;;;;;;;;5073285;28;19909;-67
2022/04/21 00:46:40;;;;;;;;;;;;;;;;;;5072807;28;19913;-67
2022/04/21 00:49:06;;;;;;;;;;;;;;;;;;5072968;28;19921;-67
2022/04/21 00:51:32;;;;;;;;;;;;;;;;;;5073737;28;19908;-67
2022/04/21 00:53:58;;;;;;;;;;;;;;;;;;5072797;28;19909;-67
2022/04/21 00:56:25;;;;;;;;;;;;;;;;;;5074478;28;19916;-67
2022/04/21 00:58:51;;;;;;;;;;;;;;;;;;5077071;28;19912;-67
2022/04/21 01:04:01;;;;;;;;;;;;;;;;;;5076681;28;19915;-67
2022/04/21 01:06:27;;;;;;;;;;;;;;;;;;5076282;28;20284;-67
2022/04/21 01:08:53;;;;;;;;;;;;;;;;;;5076533;28;19919;-67
2022/04/21 01:11:21;;;;;;;;;;;;;;;;;;5075287;28;19909;-67
2022/04/21 01:13:47;;;;;;;;;;;;;;;;;;5076109;28;19908;-67
2022/04/21 01:16:13;;;;;;;;;;;;;;;;;;5076682;28;19913;-67
2022/04/21 01:18:41;;;;;;;;;;;;;;;;;;5077023;28;19915;-67
2022/04/21 01:21:07;;;;;;;;;;;;;;;;;;5075994;28;20345;-67
2022/04/21 01:23:33;;;;;;;;;;;;;;;;;;5076362;28;19962;-67
2022/04/21 01:25:59;;;;;;;;;;;;;;;;;;5075068;28;19908;-67
2022/04/21 01:28:25;;;;;;;;;;;;;;;;;;5076078;28;19909;-67
2022/04/21 01:30:51;;;;;;;;;;;;;;;;;;5076250;28;19908;-67
2022/04/21 01:33:17;;;;;;;;;;;;;;;;;;5076167;28;20014;-67
2022/04/21 01:35:43;;;;;;;;;;;;;;;;;;5075846;28;19962;-67
2022/04/21 01:41:09;;;;;;;;;;;;;;;;;;5076056;28;20051;-67
2022/04/21 01:43:35;;;;;;;;;;;;;;;;;;5075557;28;19916;-67
2022/04/21 01:46:01;;;;;;;;;;;;;;;;;;5074679;28;20265;-67
2022/04/21 01:48:27;;;;;;;;;;;;;;;;;;5075865;28;19923;-67
2022/04/21 01:50:53;;;;;;;;;;;;;;;;;;5075779;28;19913;-67
2022/04/21 01:53:19;;;;;;;;;;;;;;;;;;5076006;28;19955;-67
2022/04/21 01:55:46;;;;;;;;;;;;;;;;;;5075504;28;19913;-67
2022/04/21 01:58:12;;;;;;;;;;;;;;;;;;5075660;28;19932;-67
2022/04/21 02:00:38;;;;;;;;;;;;;;;;;;5076049;28;19963;-67
2022/04/21 02:03:04;;;;;;;;;;;;;;;;;;5075343;28;20262;-67
2022/04/21 02:05:30;;;;;;;;;;;;;;;;;;5075698;28;19919;-67
2022/04/21 02:07:56;;;;;;;;;;;;;;;;;;5075499;28;20315;-67
2022/04/21 02:10:22;;;;;;;;;;;;;;;;;;5074974;28;19917;-67
2022/04/21 02:12:48;;;;;;;;;;;;;;;;;;5075391;28;19962;-67
2022/04/21 02:15:14;;;;;;;;;;;;;;;;;;5075336;28;19913;-67
2022/04/21 02:17:40;;;;;;;;;;;;;;;;;;5075050;28;19912;-67
2022/04/21 02:20:06;;;;;;;;;;;;;;;;;;5075183;28;19908;-67
2022/04/21 02:22:32;;;;;;;;;;;;;;;;;;5075213;28;20284;-67
2022/04/21 02:24:58;;;;;;;;;;;;;;;;;;5074731;28;19915;-67
2022/04/21 02:27:24;;;;;;;;;;;;;;;;;;5073748;28;19986;-67
2022/04/21 02:29:52;;;;;;;;;;;;;;;;;;5074992;28;19920;-67
2022/04/21 02:32:18;;;;;;;;;;;;;;;;;;5074661;28;20364;-67
2022/04/21 02:34:44;;;;;;;;;;;;;;;;;;5074955;28;19915;-67
2022/04/21 02:37:10;;;;;;;;;;;;;;;;;;5074875;28;19916;-67
2022/04/21 02:39:36;;;;;;;;;;;;;;;;;;5074526;28;19916;-67
2022/04/21 02:42:02;;;;;;;;;;;;;;;;;;5074825;28;19915;-67
2022/04/21 02:44:28;;;;;;;;;;;;;;;;;;5074767;28;19909;-67
2022/04/21 02:46:54;;;;;;;;;;;;;;;;;;5074292;28;19908;-67
2022/04/21 02:49:20;;;;;;;;;;;;;;;;;;5074323;28;19924;-67
2022/04/21 02:51:46;;;;;;;;;;;;;;;;;;5074246;28;20357;-67
2022/04/21 02:59:41;;;;;;;;;;;;;;;;;;5074233;28;20425;-67
2022/04/21 03:02:07;;;;;;;;;;;;;;;;;;5074686;28;19943;-67
2022/04/21 03:04:33;;;;;;;;;;;;;;;;;;5074386;28;19915;-67
2022/04/21 03:06:59;;;;;;;;;;;;;;;;;;5074227;28;19908;-67
2022/04/21 03:09:25;;;;;;;;;;;;;;;;;;5074274;28;20019;-67
2022/04/21 03:11:52;;;;;;;;;;;;;;;;;;5074326;28;19951;-67
2022/04/21 03:14:19;;;;;;;;;;;;;;;;;;5074126;28;19909;-67
2022/04/21 03:16:45;;;;;;;;;;;;;;;;;;5074202;28;19916;-67
2022/04/21 03:19:11;;;;;;;;;;;;;;;;;;5074257;28;19909;-67
2022/04/21 03:24:21;;;;;;;;;;;;;;;;;;5074160;28;20283;-67
2022/04/21 03:26:47;;;;;;;;;;;;;;;;;;5074069;28;19909;-67
2022/04/21 03:29:14;;;;;;;;;;;;;;;;;;5073544;28;19917;-67
2022/04/21 03:31:42;;;;;;;;;;;;;;;;;;5072777;28;19912;-67
2022/04/21 03:34:08;;;;;;;;;;;;;;;;;;5073614;28;19909;-67
2022/04/21 03:36:34;;;;;;;;;;;;;;;;;;5074034;28;19970;-67
2022/04/21 03:39:00;;;;;;;;;;;;;;;;;;5073921;28;19913;-67
2022/04/21 03:41:26;;;;;;;;;;;;;;;;;;5073678;28;19909;-67
2022/04/21 03:43:53;;;;;;;;;;;;;;;;;;5072587;28;20281;-67
2022/04/21 03:46:19;;;;;;;;;;;;;;;;;;5073802;28;19915;-67
2022/04/21 03:48:45;;;;;;;;;;;;;;;;;;5073178;28;19920;-67
2022/04/21 03:51:11;;;;;;;;;;;;;;;;;;5073822;28;20292;-67
2022/04/21 03:53:37;;;;;;;;;;;;;;;;;;5073763;28;19946;-67
2022/04/21 03:56:03;;;;;;;;;;;;;;;;;;5073513;28;19962;-67
2022/04/21 03:58:29;;;;;;;;;;;;;;;;;;5074276;28;19999;-67
2022/04/21 04:00:55;;;;;;;;;;;;;;;;;;5072459;28;19908;-67
2022/04/21 04:03:21;;;;;;;;;;;;;;;;;;5073434;28;20345;-67
2022/04/21 04:05:47;;;;;;;;;;;;;;;;;;5073899;28;19955;-67
2022/04/21 04:10:59;;;;;;;;;;;;;;;;;;5073274;28;20019;-67
2022/04/21 04:13:25;;;;;;;;;;;;;;;;;;5073597;28;19932;-67
2022/04/21 04:15:51;;;;;;;;;;;;;;;;;;5073567;28;19909;-66
2022/04/21 04:18:17;;;;;;;;;;;;;;;;;;5071800;28;20293;-66
2022/04/21 04:20:43;;;;;;;;;;;;;;;;;;5073788;28;19909;-66
2022/04/21 04:23:09;;;;;;;;;;;;;;;;;;5073449;28;19984;-66
2022/04/21 04:25:35;;;;;;;;;;;;;;;;;;5073415;28;20276;-66
2022/04/21 04:28:04;;;;;;;;;;;;;;;;;;5073454;28;19909;-66
2022/04/21 04:30:30;;;;;;;;;;;;;;;;;;5072925;28;20395;-66
2022/04/21 04:32:56;;;;;;;;;;;;;;;;;;5077077;28;19908;-67
2022/04/21 04:35:25;;;;;;;;;;;;;;;;;;5077281;28;19908;-66
2022/04/21 04:37:51;;;;;;;;;;;;;;;;;;5076813;28;19919;-66
2022/04/21 04:40:17;;;;;;;;;;;;;;;;;;5077092;28;19909;-66
2022/04/21 04:42:43;;;;;;;;;;;;;;;;;;5077059;28;20008;-66
2022/04/21 04:47:54;;;;;;;;;;;;;;;;;;5076867;28;20287;-66
2022/04/21 04:50:20;;;;;;;;;;;;;;;;;;5077250;28;19921;-65
2022/04/21 04:52:49;;;;;;;;;;;;;;;;;;5076690;28;19915;-66
2022/04/21 04:55:15;;;;;;;;;;;;;;;;;;5075618;28;19932;-66
2022/04/21 04:57:41;;;;;;;;;;;;;;;;;;5075501;28;19913;-66
2022/04/21 05:00:08;;;;;;;;;;;;;;;;;;5075051;28;19909;-66
2022/04/21 05:02:34;;;;;;;;;;;;;;;;;;5076719;28;19995;-66
2022/04/21 05:05:00;;;;;;;;;;;;;;;;;;5076680;28;19959;-66
2022/04/21 05:07:26;;;;;;;;;;;;;;;;;;5076333;28;19915;-66
2022/04/21 05:09:52;;;;;;;;;;;;;;;;;;5075003;28;19918;-65
2022/04/21 05:12:21;;;;;;;;;;;;;;;;;;5075583;28;20011;-66
2022/04/21 05:14:48;;;;;;;;;;;;;;;;;;5075590;28;19909;-66
2022/04/21 05:17:16;;;;;;;;;;;;;;;;;;5074542;28;19919;-66
2022/04/21 05:19:42;;;;;;;;;;;;;;;;;;5075839;28;19916;-66
2022/04/21 05:22:08;;;;;;;;;;;;;;;;;;5075658;28;20277;-65
2022/04/21 05:24:34;;;;;;;;;;;;;;;;;;5059416;28;19916;-66
2022/04/21 05:27:04;;;;;;;;;;;;;;;;;;5053759;28;19913;-66
2022/04/21 05:32:15;;;;;;;;;;;;;;;;;;5069642;28;19920;-66
2022/04/21 05:34:41;;;;;;;;;;;;;;;;;;5075254;28;19917;-66
2022/04/21 05:37:07;;;;;;;;;;;;;;;;;;5075882;28;19915;-66
2022/04/21 05:39:33;;;;;;;;;;;;;;;;;;5074891;28;20391;-66
2022/04/21 05:41:59;;;;;;;;;;;;;;;;;;5074637;28;20365;-66
2022/04/21 05:44:25;;;;;;;;;;;;;;;;;;5074577;28;20422;-66
2022/04/21 05:46:51;;;;;;;;;;;;;;;;;;5074450;28;19938;-67
2022/04/21 05:49:17;;;;;;;;;;;;;;;;;;5074517;28;19920;-66
2022/04/21 05:51:43;;;;;;;;;;;;;;;;;;5073969;28;19908;-66
2022/04/21 05:54:09;;;;;;;;;;;;;;;;;;5075140;28;20329;-67
2022/04/21 05:56:35;;;;;;;;;;;;;;;;;;5074801;28;20003;-66
2022/04/21 05:59:01;;;;;;;;;;;;;;;;;;5074171;28;19961;-67
2022/04/21 06:01:27;;;;;;;;;;;;;;;;;;5075072;28;19908;-66
2022/04/21 06:03:53;;;;;;;;;;;;;;;;;;5074848;28;20369;-67
2022/04/21 06:06:21;;;;;;;;;;;;;;;;;;5074533;28;20356;-66
2022/04/21 06:08:48;;;;;;;;;;;;;;;;;;5074576;28;19919;-66
2022/04/21 06:11:25;;;;;;;;;;;;;;;;;;5077906;28;19912;-66
2022/04/21 06:13:51;;;;;;;;;;;;;;;;;;5060798;28;19963;-67
2022/04/21 06:16:17;;;;;;;;;;;;;;;;;;5052796;28;19936;-65
2022/04/21 06:18:43;;;;;;;;;;;;;;;;;;5052686;28;19951;-67
2022/04/21 06:21:09;;;;;;;;;;;;;;;;;;5052028;28;19909;-65
2022/04/21 06:23:35;;;;;;;;;;;;;;;;;;5053086;28;19952;-66
2022/04/21 06:26:03;;;;;;;;;;;;;;;;;;5053811;28;20393;-65
2022/04/21 06:28:29;;;;;;;;;;;;;;;;;;5054859;28;20002;-65
2022/04/21 06:30:55;;;;;;;;;;;;;;;;;;5056234;28;19959;-66
2022/04/21 06:33:21;;;;;;;;;;;;;;;;;;5066431;28;19908;-65
2022/04/21 06:35:47;;;;;;;;;;;;;;;;;;5071945;28;19908;-66
2022/04/21 06:38:16;;;;;;;;;;;;;;;;;;5072150;28;19908;-65
2022/04/21 06:40:42;;;;;;;;;;;;;;;;;;5073803;28;20318;-66
2022/04/21 06:48:38;;;;;;;;;;;;;;;;;;5074168;28;19966;-65
2022/04/21 06:51:05;;;;;;;;;;;;;;;;;;5072896;28;20341;-65
2022/04/21 06:53:31;;;;;;;;;;;;;;;;;;5064852;28;19923;-65
2022/04/21 06:55:57;;;;;;;;;;;;;;;;;;5063947;28;19915;-65
2022/04/21 06:58:23;;;;;;;;;;;;;;;;;;5070565;28;19908;-67
2022/04/21 07:00:49;;;;;;;;;;;;;;;;;;5073505;28;19920;-66
2022/04/21 07:03:15;;;;;;;;;;;;;;;;;;5072175;28;19909;-66
2022/04/21 07:05:41;;;;;;;;;;;;;;;;;;5072974;28;20288;-65
2022/04/21 07:08:07;;;;;;;;;;;;;;;;;;5072567;28;19958;-64
2022/04/21 07:10:34;;;;;;;;;;;;;;;;;;5072361;28;19924;-66
2022/04/21 07:13:02;;;;;;;;;;;;;;;;;;5065134;28;20383;-66
2022/04/21 07:15:28;;;;;;;;;;;;;;;;;;5072603;28;19913;-66
2022/04/21 07:17:54;;;;;;;;;;;;;;;;;;5072711;28;19919;-67
2022/04/21 07:20:20;;;;;;;;;;;;;;;;;;5073345;28;19999;-67
2022/04/21 07:22:46;;;;;;;;;;;;;;;;;;5073131;28;19908;-67
2022/04/21 07:25:12;;;;;;;;;;;;;;;;;;5072816;28;20331;-67
2022/04/21 07:27:38;;;;;;;;;;;;;;;;;;5073265;28;19915;-66
2022/04/21 07:30:04;;;;;;;;;;;;;;;;;;5069158;28;19960;-65
2022/04/21 07:32:30;;;;;;;;;;;;;;;;;;5073526;28;19955;-66
2022/04/21 07:34:56;;;;;;;;;;;;;;;;;;5072697;28;19912;-66
2022/04/21 07:37:22;;;;;;;;;;;;;;;;;;5073640;28;19915;-65
2022/04/21 07:39:53;;;;;;;;;;;;;;;;;;5064934;28;20015;-67
2022/04/21 07:42:39;;;;;;;;;;;;;;;;;;5068477;28;19913;-65
2022/04/21 07:45:06;;;;;;;;;;;;;;;;;;5066369;28;19916;-66
2022/04/21 07:47:32;;;;;;;;;;;;;;;;;;5061706;28;19912;-66
2022/04/21 07:49:58;;;;;;;;;;;;;;;;;;5072576;28;20460;-65
2022/04/21 07:55:09;;;;;;;;;;;;;;;;;;5060953;28;19924;-66
2022/04/21 07:57:35;;;;;;;;;;;;;;;;;;5069598;28;19913;-66
2022/04/21 08:00:02;;;;;;;;;;;;;;;;;;5072106;28;19909;-67
2022/04/21 08:02:28;;;;;;;;;;;;;;;;;;5071595;28;19961;-66
2022/04/21 08:04:54;;;;;;;;;;;;;;;;;;5068835;28;19951;-66
2022/04/21 08:07:21;;;;;;;;;;;;;;;;;;5075920;28;19920;-65
2022/04/21 08:09:47;;;;;;;;;;;;;;;;;;5074437;28;19916;-66
2022/04/21 08:12:13;;;;;;;;;;;;;;;;;;5076010;28;19919;-66
2022/04/21 08:14:42;;;;;;;;;;;;;;;;;;5076194;28;19916;-67
2022/04/21 08:17:10;;;;;;;;;;;;;;;;;;5075147;28;20443;-66
2022/04/21 08:19:36;;;;;;;;;;;;;;;;;;5074151;28;19913;-67
2022/04/21 08:22:02;;;;;;;;;;;;;;;;;;5074664;28;19912;-67
2022/04/21 08:32:46;;;;;;;;;;;;;;;;;;5076606;28;19916;-66
2022/04/21 08:35:13;;;;;;;;;;;;;;;;;;5076481;28;20021;-66
2022/04/21 08:37:39;;;;;;;;;;;;;;;;;;5075305;28;19915;-66
2022/04/21 08:40:06;;;;;;;;;;;;;;;;;;5073686;28;19913;-66
2022/04/21 08:42:32;;;;;;;;;;;;;;;;;;5074500;28;20388;-67
2022/04/21 08:44:59;;;;;;;;;;;;;;;;;;5074055;28;19912;-67
2022/04/21 08:47:28;;;;;;;;;;;;;;;;;;5074473;28;19917;-67
2022/04/21 08:49:54;;;;;;;;;;;;;;;;;;5074682;28;19921;-67
2022/04/21 08:52:20;;;;;;;;;;;;;;;;;;5075195;28;20261;-66
2022/04/21 08:54:46;;;;;;;;;;;;;;;;;;5075810;28;19954;-67
2022/04/21 08:57:12;;;;;;;;;;;;;;;;;;5072364;28;19908;-66
2022/04/21 08:59:38;;;;;;;;;;;;;;;;;;5070781;28;19951;-66
2022/04/21 09:02:04;;;;;;;;;;;;;;;;;;5071873;28;19951;-67
2022/04/21 09:04:37;;;;;;;;;;;;;;;;;;5065193;28;19939;-66
2022/04/21 09:07:03;;;;;;;;;;;;;;;;;;5074692;28;20376;-66
2022/04/21 09:09:29;;;;;;;;;;;;;;;;;;5074518;28;19926;-65
2022/04/21 09:11:55;;;;;;;;;;;;;;;;;;5076847;28;19912;-65
2022/04/21 09:14:21;;;;;;;;;;;;;;;;;;5094543;28;20380;-66
2022/04/21 09:16:48;;;;;;;;;;;;;;;;;;5095357;28;19961;-66
2022/04/21 09:19:14;;;;;;;;;;;;;;;;;;5094565;28;19908;-66
2022/04/21 09:21:40;;;;;;;;;;;;;;;;;;5095894;28;19912;-68
2022/04/21 09:24:06;;;;;;;;;;;;;;;;;;5073324;28;19965;-67
2022/04/21 09:26:33;;;;;;;;;;;;;;;;;;5075042;28;19915;-67
2022/04/21 09:28:59;;;;;;;;;;;;;;;;;;5074338;28;20434;-68
2022/04/21 09:31:27;;;;;;;;;;;;;;;;;;5075486;28;20445;-66
2022/04/21 09:35:38;;;;;;;;;;;;;;;;;;5112075;27;958955;-66
2022/04/21 09:38:04;;;;;;;;;;;;;;;;;;5152239;27;19911;-66
2022/04/21 09:41:25;;;;;;;;;;;;;;;;;;5023476;27;4222539;-66
2022/04/21 09:43:53;;;;;;;;;;;;;;;;;;5181248;27;19915;-66
2022/04/21 09:46:19;;;;;;;;;;;;;;;;;;5188971;27;20450;-68
2022/04/21 09:49:09;;;;;;;;;;;;;;;;;;5091329;27;19917;-65
2022/04/21 09:52:21;;;;;;;;;;;;;;;;;;5095804;27;20461;-65
2022/04/21 09:54:47;;;;;;;;;;;;;;;;;;5071039;28;19974;-65
2022/04/21 09:58:22;;;;;;;;;;;;;;;;;;5091905;27;19925;-64
2022/04/21 10:02:14;;;;;;;;;;;;;;;;;;5130797;27;19962;-67
2022/04/21 10:04:42;;;;;;;;;;;;;;;;;;5147907;27;20093;-66
2022/04/21 10:07:09;;;;;;;;;;;;;;;;;;5140183;27;19911;-68
2022/04/21 10:09:35;;;;;;;;;;;;;;;;;;5123001;27;19915;-66
2022/04/21 10:12:01;;;;;;;;;;;;;;;;;;5141131;27;19994;-67
2022/04/21 10:14:27;;;;;;;;;;;;;;;;;;5141085;27;19933;-66
2022/04/21 10:16:56;;;;;;;;;;;;;;;;;;5122573;28;19915;-66
2022/04/21 10:19:28;;;;;;;;;;;;;;;;;;5128811;28;19915;-67
2022/04/21 10:22:13;;;;;;;;;;;;;;;;;;5132889;27;19915;-66
2022/04/21 10:24:41;;;;;;;;;;;;;;;;;;5123673;27;20307;-66
2022/04/21 10:27:09;;;;;;;;;;;;;;;;;;5149993;27;19994;-68
2022/04/21 10:29:35;;;;;;;;;;;;;;;;;;5128427;27;20346;-67
2022/04/21 10:32:07;;;;;;;;;;;;;;;;;;5111832;28;19969;-67
2022/04/21 10:34:36;;;;;;;;;;;;;;;;;;5129236;27;20368;-67
2022/04/21 10:37:08;;;;;;;;;;;;;;;;;;5147390;27;20002;-68
2022/04/21 10:39:34;;;;;;;;;;;;;;;;;;5149819;27;19971;-67
2022/04/21 10:42:01;;;;;;;;;;;;;;;;;;5136805;27;20291;-66
2022/04/21 10:44:27;;;;;;;;;;;;;;;;;;5150634;27;19911;-67
2022/04/21 10:46:53;;;;;;;;;;;;;;;;;;5140851;27;19931;-68
2022/04/21 10:49:19;;;;;;;;;;;;;;;;;;5130774;28;20367;-68
2022/04/21 10:57:12;;;;;;;;;;;;;;;;;;5129895;28;19919;-68
2022/04/21 10:57:16;;;;;;;;;;;;;;;;;;5130022;28;19970;-68
2022/04/21 10:59:42;;;;;;;;;;;;;;;;;;5128894;28;19908;-66
2022/04/21 11:02:08;;;;;;;;;;;;;;;;;;5129659;28;19926;-66
2022/04/21 11:04:34;;;;;;;;;;;;;;;;;;5130478;28;19939;-66
2022/04/21 11:07:00;;;;;;;;;;;;;;;;;;5130808;28;20052;-66
2022/04/21 11:09:26;;;;;;;;;;;;;;;;;;5130033;27;20435;-65
2022/04/21 11:11:52;;;;;;;;;;;;;;;;;;5137626;27;20010;-67
2022/04/21 11:14:18;;;;;;;;;;;;;;;;;;5120929;27;19914;-67
2022/04/21 11:16:45;;;;;;;;;;;;;;;;;;5136799;27;19907;-66
2022/04/21 11:19:11;;;;;;;;;;;;;;;;;;5128135;27;19907;-69
2022/04/21 11:21:37;;;;;;;;;;;;;;;;;;5116907;28;20377;-67
2022/04/21 11:24:03;;;;;;;;;;;;;;;;;;5116929;28;19915;-68
2022/04/21 11:26:29;;;;;;;;;;;;;;;;;;5116581;28;19908;-66
2022/04/21 11:28:55;;;;;;;;;;;;;;;;;;5116566;28;19911;-66
2022/04/21 11:31:21;;;;;;;;;;;;;;;;;;5116978;28;19961;-66
2022/04/21 11:33:47;;;;;;;;;;;;;;;;;;5098089;28;19908;-66
2022/04/21 11:36:13;;;;;;;;;;;;;;;;;;5116627;28;19950;-66
2022/04/21 11:38:39;;;;;;;;;;;;;;;;;;5116622;28;20339;-65
2022/04/21 11:41:05;;;;;;;;;;;;;;;;;;5097949;28;20007;-67
2022/04/21 11:43:31;;;;;;;;;;;;;;;;;;5116739;28;19912;-67
2022/04/21 11:45:59;;;;;;;;;;;;;;;;;;5135582;27;19907;-66
2022/04/21 11:48:30;;;;;;;;;;;;;;;;;;5136620;27;19966;-67
2022/04/21 11:51:16;;;;;;;;;;;;;;;;;;5136752;27;20006;-66
2022/04/21 11:53:43;;;;;;;;;;;;;;;;;;5136523;27;20002;-66
2022/04/21 11:56:27;;;;;;;;;;;;;;;;;;5136702;27;19972;-67
2022/04/21 11:59:10;;;;;;;;;;;;;;;;;;5121143;27;19908;-67
2022/04/21 12:07:08;;;;;;;;;;;;;;;;;;5116021;28;20010;-66
2022/04/21 12:09:34;;;;;;;;;;;;;;;;;;5115557;28;20391;-67
2022/04/21 12:12:00;;;;;;;;;;;;;;;;;;5114134;28;19976;-68
2022/04/21 12:14:26;;;;;;;;;;;;;;;;;;5113772;28;20376;-67
2022/04/21 12:16:53;;;;;;;;;;;;;;;;;;5114306;28;19908;-68
2022/04/21 12:19:19;;;;;;;;;;;;;;;;;;5113924;28;19915;-66
2022/04/21 12:21:45;;;;;;;;;;;;;;;;;;5114572;28;20407;-67
2022/04/21 12:24:11;;;;;;;;;;;;;;;;;;5114206;28;20376;-68
2022/04/21 12:26:37;;;;;;;;;;;;;;;;;;5115692;28;20348;-68
2022/04/21 12:29:03;;;;;;;;;;;;;;;;;;5115360;28;20440;-68
2022/04/21 12:31:29;;;;;;;;;;;;;;;;;;5115879;28;19943;-68
2022/04/21 12:33:55;;;;;;;;;;;;;;;;;;5097372;28;19911;-69
2022/04/21 12:36:21;;;;;;;;;;;;;;;;;;5115463;28;19915;-68
2022/04/21 12:38:53;;;;;;;;;;;;;;;;;;5116130;28;19908;-68
2022/04/21 12:41:19;;;;;;;;;;;;;;;;;;5115468;28;20352;-68
2022/04/21 12:43:46;;;;;;;;;;;;;;;;;;5115483;28;20006;-68
2022/04/21 12:46:12;;;;;;;;;;;;;;;;;;5115451;28;19918;-68
2022/04/21 12:48:38;;;;;;;;;;;;;;;;;;5115321;28;19907;-68
2022/04/21 12:51:07;;;;;;;;;;;;;;;;;;5114935;28;19908;-68
2022/04/21 12:53:36;;;;;;;;;;;;;;;;;;5115787;28;19915;-68
2022/04/21 12:56:02;;;;;;;;;;;;;;;;;;5115143;28;19944;-68
2022/04/21 12:58:28;;;;;;;;;;;;;;;;;;5114790;28;19908;-68
2022/04/21 13:00:54;;;;;;;;;;;;;;;;;;5114893;28;19999;-68
2022/04/21 13:03:20;;;;;;;;;;;;;;;;;;5115513;28;19943;-68
2022/04/21 13:05:47;;;;;;;;;;;;;;;;;;5114718;28;20360;-68
2022/04/21 13:08:13;;;;;;;;;;;;;;;;;;5114964;28;19908;-68
2022/04/21 13:10:39;;;;;;;;;;;;;;;;;;5114495;28;20265;-68
2022/04/21 13:13:05;;;;;;;;;;;;;;;;;;5115145;28;19912;-68
2022/04/21 13:15:31;;;;;;;;;;;;;;;;;;5114774;28;19915;-68
2022/04/21 13:17:57;;;;;;;;;;;;;;;;;;5114383;28;19937;-68
2022/04/21 13:23:08;;;;;;;;;;;;;;;;;;5114810;28;19919;-68
2022/04/21 13:25:34;;;;;;;;;;;;;;;;;;5114326;28;19907;-68
2022/04/21 13:28:00;;;;;;;;;;;;;;;;;;5114657;28;19930;-68
2022/04/21 13:30:27;;;;;;;;;;;;;;;;;;5115113;28;20367;-69
2022/04/21 13:35:40;;;;;;;;;;;;;;;;;;5114396;28;19915;-69
2022/04/21 13:38:06;;;;;;;;;;;;;;;;;;5114411;28;20376;-69
2022/04/21 13:40:33;;;;;;;;;;;;;;;;;;5114163;28;19923;-69
2022/04/21 13:42:58;;;;;;;;;;;;;;;;;;5096151;28;19908;-69
2022/04/21 13:45:25;;;;;;;;;;;;;;;;;;5114391;28;19908;-69
2022/04/21 13:47:51;;;;;;;;;;;;;;;;;;5113574;28;20124;-67
2022/04/21 13:50:17;;;;;;;;;;;;;;;;;;5114297;28;20340;-67
2022/04/21 13:52:43;;;;;;;;;;;;;;;;;;5114391;28;19915;-67
2022/04/21 13:55:09;;;;;;;;;;;;;;;;;;5113761;28;19956;-67
2022/04/21 13:57:35;;;;;;;;;;;;;;;;;;5114111;28;20428;-68
2022/04/21 14:00:05;;;;;;;;;;;;;;;;;;5113604;28;19958;-67
2022/04/21 14:02:33;;;;;;;;;;;;;;;;;;5113543;28;20336;-68
2022/04/21 14:04:59;;;;;;;;;;;;;;;;;;5114212;28;20314;-68
2022/04/21 14:07:25;;;;;;;;;;;;;;;;;;5113686;28;19911;-68
2022/04/21 14:09:51;;;;;;;;;;;;;;;;;;5113927;28;19908;-68
2022/04/21 14:12:18;;;;;;;;;;;;;;;;;;5114072;28;20279;-68
2022/04/21 14:14:44;;;;;;;;;;;;;;;;;;5095427;28;20003;-68
2022/04/21 14:17:10;;;;;;;;;;;;;;;;;;5114131;28;20399;-68
2022/04/21 14:19:36;;;;;;;;;;;;;;;;;;5114096;28;19967;-68
2022/04/21 14:22:02;;;;;;;;;;;;;;;;;;5113904;28;19927;-68
2022/04/21 14:24:28;;;;;;;;;;;;;;;;;;5114263;28;20267;-68
2022/04/21 14:26:54;;;;;;;;;;;;;;;;;;5114646;28;19908;-69
2022/04/21 14:29:20;;;;;;;;;;;;;;;;;;5113568;28;19908;-68
2022/04/21 14:31:46;;;;;;;;;;;;;;;;;;5113987;28;20321;-69
2022/04/21 14:34:12;;;;;;;;;;;;;;;;;;5113968;28;19947;-68
2022/04/21 14:36:38;;;;;;;;;;;;;;;;;;5113546;28;19912;-68
2022/04/21 14:44:36;;;;;;;;;;;;;;;;;;5113912;28;20319;-69
2022/04/21 14:47:03;;;;;;;;;;;;;;;;;;5114445;28;19957;-68
2022/04/21 14:49:30;;;;;;;;;;;;;;;;;;5117281;28;19907;-68
2022/04/21 14:51:56;;;;;;;;;;;;;;;;;;5117729;28;19915;-68
2022/04/21 14:54:22;;;;;;;;;;;;;;;;;;5099259;28;19908;-66
2022/04/21 14:56:48;;;;;;;;;;;;;;;;;;5117209;28;19907;-67
2022/04/21 14:59:14;;;;;;;;;;;;;;;;;;5117365;28;19912;-67
2022/04/21 15:01:45;;;;;;;;;;;;;;;;;;5116952;28;19972;-69
2022/04/21 15:04:30;;;;;;;;;;;;;;;;;;5117055;28;19908;-67
2022/04/21 15:06:56;;;;;;;;;;;;;;;;;;5098866;28;19949;-67
2022/04/21 15:09:22;;;;;;;;;;;;;;;;;;5117246;28;19914;-67
2022/04/21 15:11:49;;;;;;;;;;;;;;;;;;5116833;28;19953;-68
2022/04/21 15:14:15;;;;;;;;;;;;;;;;;;5117094;28;19919;-67
2022/04/21 15:16:41;;;;;;;;;;;;;;;;;;5116923;28;19908;-67
2022/04/21 15:19:07;;;;;;;;;;;;;;;;;;5116705;28;19907;-67
2022/04/21 15:21:36;;;;;;;;;;;;;;;;;;5115906;28;19922;-67
2022/04/21 15:24:02;;;;;;;;;;;;;;;;;;5117091;28;20367;-67
2022/04/21 15:26:28;;;;;;;;;;;;;;;;;;5116526;28;19994;-68
2022/04/21 15:28:54;;;;;;;;;;;;;;;;;;5116949;28;19914;-67
2022/04/21 15:31:20;;;;;;;;;;;;;;;;;;5116745;28;19916;-67
2022/04/21 15:33:49;;;;;;;;;;;;;;;;;;5116333;28;19909;-67
2022/04/21 15:36:15;;;;;;;;;;;;;;;;;;5117049;28;20343;-68
2022/04/21 15:38:44;;;;;;;;;;;;;;;;;;5116279;28;19908;-68
2022/04/21 15:41:10;;;;;;;;;;;;;;;;;;5116518;28;19954;-68
2022/04/21 15:43:37;;;;;;;;;;;;;;;;;;5116568;28;19947;-68
2022/04/21 15:46:04;;;;;;;;;;;;;;;;;;5116161;28;19908;-68
2022/04/21 15:48:30;;;;;;;;;;;;;;;;;;5116470;28;20363;-68
2022/04/21 15:50:56;;;;;;;;;;;;;;;;;;5116816;28;19919;-67
2022/04/21 15:59:11;;;;;;;;;;;;;;;;;;5033764;28;19909;-67
2022/04/21 16:01:37;;;;;;;;;;;;;;;;;;5033054;28;19963;-68
2022/04/21 16:04:03;;;;;;;;;;;;;;;;;;5054755;28;19908;-68
2022/04/21 16:06:29;;;;;;;;;;;;;;;;;;5116520;28;19908;-68
2022/04/21 16:08:55;;;;;;;;;;;;;;;;;;5115857;28;19911;-68
2022/04/21 16:11:21;;;;;;;;;;;;;;;;;;5116210;28;19908;-67
2022/04/21 16:13:49;;;;;;;;;;;;;;;;;;5116178;28;19915;-68
2022/04/21 16:16:15;;;;;;;;;;;;;;;;;;5116062;28;20006;-67
2022/04/21 16:18:41;;;;;;;;;;;;;;;;;;5116290;28;19984;-69
2022/04/21 16:21:07;;;;;;;;;;;;;;;;;;5115648;28;20274;-69
2022/04/21 16:23:33;;;;;;;;;;;;;;;;;;5097627;28;19979;-69
2022/04/21 16:25:59;;;;;;;;;;;;;;;;;;5097555;28;20352;-67
2022/04/21 16:28:25;;;;;;;;;;;;;;;;;;5115579;28;19952;-67
2022/04/21 16:30:52;;;;;;;;;;;;;;;;;;5115681;28;19961;-69
2022/04/21 16:33:18;;;;;;;;;;;;;;;;;;5115665;28;19972;-67
2022/04/21 16:35:44;;;;;;;;;;;;;;;;;;5115261;28;19912;-67
2022/04/21 16:38:10;;;;;;;;;;;;;;;;;;5097319;28;19911;-67
2022/04/21 16:40:36;;;;;;;;;;;;;;;;;;5097445;28;20297;-69
2022/04/21 16:43:02;;;;;;;;;;;;;;;;;;5115431;28;19915;-69
2022/04/21 16:45:28;;;;;;;;;;;;;;;;;;5115464;28;19954;-68
2022/04/21 16:47:54;;;;;;;;;;;;;;;;;;5115476;28;19932;-67
2022/04/21 16:50:20;;;;;;;;;;;;;;;;;;5115025;28;19911;-69
2022/04/21 16:52:46;;;;;;;;;;;;;;;;;;5115559;28;19908;-69
2022/04/21 16:55:12;;;;;;;;;;;;;;;;;;5115577;28;19907;-67
2022/04/21 16:57:38;;;;;;;;;;;;;;;;;;5114995;28;19908;-69
2022/04/21 17:00:04;;;;;;;;;;;;;;;;;;5096730;28;19908;-69
2022/04/21 17:05:14;;;;;;;;;;;;;;;;;;5114790;28;19915;-69
2022/04/21 17:07:42;;;;;;;;;;;;;;;;;;5115000;28;19908;-67
2022/04/21 17:10:08;;;;;;;;;;;;;;;;;;5114368;28;19915;-67
2022/04/21 17:12:34;;;;;;;;;;;;;;;;;;5114895;28;19908;-67
2022/04/21 17:15:00;;;;;;;;;;;;;;;;;;5114968;28;19908;-67
2022/04/21 17:17:26;;;;;;;;;;;;;;;;;;5114631;28;20000;-67
2022/04/21 17:19:52;;;;;;;;;;;;;;;;;;5115065;28;20440;-67
2022/04/21 17:22:18;;;;;;;;;;;;;;;;;;5114730;28;19923;-69
2022/04/21 17:24:44;;;;;;;;;;;;;;;;;;5096079;28;20364;-67
2022/04/21 17:27:10;;;;;;;;;;;;;;;;;;5114758;28;19907;-67
2022/04/21 17:29:36;;;;;;;;;;;;;;;;;;5114714;28;19961;-67
2022/04/21 17:32:02;;;;;;;;;;;;;;;;;;5114298;28;19911;-68
2022/04/21 17:34:28;;;;;;;;;;;;;;;;;;5114942;28;19908;-67
2022/04/21 17:36:54;;;;;;;;;;;;;;;;;;5096310;28;19911;-67
2022/04/21 17:39:21;;;;;;;;;;;;;;;;;;5114595;28;19908;-68
2022/04/21 17:41:47;;;;;;;;;;;;;;;;;;5114442;28;19920;-67
2022/04/21 17:44:15;;;;;;;;;;;;;;;;;;5114778;28;19960;-69
2022/04/21 17:46:41;;;;;;;;;;;;;;;;;;5113994;28;19908;-67
2022/04/21 17:49:07;;;;;;;;;;;;;;;;;;5114431;28;20288;-67
2022/04/21 17:51:33;;;;;;;;;;;;;;;;;;5114977;28;19957;-67
2022/04/21 17:53:59;;;;;;;;;;;;;;;;;;5114058;28;19953;-67
2022/04/21 17:56:25;;;;;;;;;;;;;;;;;;5114428;28;19911;-68